Latest Weather Observations for Horsham

IDV60801

Issued at 9:02 am EST Tuesday 4 August 2015 (issued every 30 minutes, with the page automatically refreshed every 10 minutes)

About weather observations | Map of weather stations | Latest weather observations for VIC | Other Formats
Station Details ID: 079100 Name: HORSHAM AERODROME Lat: -36.67 Lon: 142.17 Height: 133.8 m
Data from the previous 72 hours. | See also: Recent months at Horsham
Date/Time
EST
Temp
°C
App
Temp
°C
Dew
Point
Rel
Hum
%
Delta-T
°C
Wind Press
QNH
hPa
Press
MSL
hPa
Rain
since 9 am
mm
Dir
 
Spd
km/h
Gust
km/h
Spd
kts
Gust
kts
04/09:00am 2.8 0.1 2.4 97 0.2 NW 6 7 3 4 1025.3 1025.5 0.0
04/08:30am 1.5 -1.1 1.1 97 0.2 N 4 7 2 4 1025.3 1025.5 0.0
04/08:00am 0.1 -3.3 -0.3 97 0.1 N 7 9 4 5 1025.3 1025.5 0.0
04/07:30am -0.5 -4.3 -0.9 97 0.1 NNW 9 9 5 5 1025.0 1025.2 0.0
04/07:00am -0.3 -3.5 -0.7 97 0.1 NW 6 7 3 4 1025.2 1025.4 0.0
04/06:30am -0.4 -2.9 -0.8 97 0.1 NNW 2 6 1 3 1025.1 1025.3 0.0
04/06:00am -0.8 -3.7 -1.2 97 0.1 NNW 4 6 2 3 1024.9 1025.1 0.0
04/05:30am -1.6 -5.0 -2.2 96 0.1 NNW 6 9 3 5 1024.7 1024.9 0.0
04/05:00am -0.8 -4.3 -1.2 97 0.1 WNW 7 9 4 5 1024.7 1024.9 0.0
04/04:30am -1.2 -4.7 -1.6 97 0.1 WNW 7 9 4 5 1024.8 1025.0 0.0
04/04:23am -1.6 -5.2 -2.0 97 0.1 WNW 7 9 4 5 1024.8 1025.0 0.0
04/04:00am -2.5 -6.2 -3.0 96 0.1 NW 7 9 4 5 1024.9 1025.1 0.0
04/03:56am -2.7 -6.4 -3.2 96 0.0 NW 7 7 4 4 1024.8 1025.0 0.0
04/03:34am -3.2 -6.8 -3.7 96 0.0 WSW 6 7 3 4 1024.9 1025.1 0.0
04/03:30am -3.3 -6.9 -4.0 95 0.1 SSW 6 7 3 4 1024.9 1025.1 0.0
04/03:24am -3.1 -6.3 -3.8 95 0.1 S 4 6 2 3 1024.9 1025.1 0.0
04/03:12am -2.5 -6.0 -3.2 95 0.1 S 6 7 3 4 1025.0 1025.2 0.0
04/03:11am -2.4 -5.9 -3.1 95 0.1 S 6 7 3 4 1025.0 1025.2 0.0
04/03:08am -2.4 -6.1 -3.1 95 0.1 S 7 7 4 4 1025.0 1025.2 0.0
04/03:00am -2.0 -5.7 -2.6 96 0.1 S 7 9 4 5 1025.0 1025.2 0.0
04/02:31am -2.5 -6.2 -3.2 95 0.1 SSE 7 9 4 5 1025.1 1025.3 0.0
04/02:30am -2.5 -6.2 -3.2 95 0.1 SSE 7 9 4 5 1025.1 1025.3 0.0
04/02:09am -2.8 -6.4 -3.8 93 0.2 WNW 6 7 3 4 1025.1 1025.3 0.0
04/02:06am -2.6 -6.2 -3.6 93 0.2 WNW 6 7 3 4 1025.1 1025.3 0.0
04/02:00am -1.4 -4.5 -2.4 93 0.3 WNW 4 6 2 3 1025.1 1025.3 0.0
04/01:58am -1.5 -4.6 -2.5 93 0.3 WNW 4 6 2 3 1025.1 1025.3 0.0
04/01:30am 1.3 -2.3 0.4 94 0.3 WNW 9 9 5 5 1025.0 1025.2 0.0
04/01:00am 0.9 -2.8 -0.2 92 0.4 WNW 9 11 5 6 1025.1 1025.3 0.0
04/12:30am 1.6 -2.1 0.1 90 0.6 W 9 9 5 5 1025.2 1025.4 0.0
04/12:00am 2.7 -1.3 0.8 87 0.7 W 11 13 6 7 1025.2 1025.4 0.0
 
Date/Time
EST
Temp
°C
App
Temp
°C
Dew
Point
Rel
Hum
%
Delta-T
°C
Wind Press
QNH
hPa
Press
MSL
hPa
Rain
since 9 am
mm
Dir
 
Spd
km/h
Gust
km/h
Spd
kts
Gust
kts
03/11:30pm 3.4 -0.9 1.1 85 0.9 W 13 17 7 9 1025.1 1025.3 0.0
03/11:00pm 2.5 -1.5 0.7 88 0.7 W 11 13 6 7 1025.1 1025.3 0.0
03/10:30pm 2.1 -1.3 -0.3 84 0.9 WSW 7 7 4 4 1025.2 1025.4 0.0
03/10:00pm 3.7 0.2 1.1 83 1.0 WSW 9 9 5 5 1025.3 1025.5 0.0
03/09:30pm 4.5 1.1 1.9 83 1.0 WSW 9 13 5 7 1025.3 1025.5 0.0
03/09:00pm 4.8 1.4 2.0 82 1.1 WSW 9 11 5 6 1025.3 1025.5 0.0
03/08:30pm 5.2 1.4 1.9 79 1.3 SW 11 13 6 7 1025.1 1025.3 0.0
03/08:00pm 5.8 2.0 1.9 76 1.6 WSW 11 13 6 7 1024.9 1025.1 0.0
03/07:30pm 5.9 2.5 2.0 76 1.6 WSW 9 11 5 6 1024.7 1024.9 0.0
03/07:00pm 6.0 2.5 1.5 73 1.8 SW 9 11 5 6 1024.3 1024.5 0.0
03/06:30pm 6.6 2.8 1.9 72 1.9 SW 11 13 6 7 1024.1 1024.3 0.0
03/06:00pm 7.5 3.0 2.0 68 2.3 SW 15 19 8 10 1023.7 1023.9 0.0
03/05:30pm 7.9 3.3 1.5 64 2.6 SW 15 20 8 11 1023.4 1023.6 0.0
03/05:00pm 8.8 2.9 1.9 62 2.9 SSW 22 28 12 15 1023.3 1023.5 0.0
03/04:30pm 9.0 2.0 1.7 60 3.0 SSW 28 33 15 18 1022.8 1023.0 0.0
03/04:00pm 9.8 4.4 2.4 60 3.1 SW 20 28 11 15 1022.7 1022.9 0.0
03/03:30pm 9.6 4.2 2.5 61 3.0 SW 20 26 11 14 1022.4 1022.6 0.0
03/03:00pm 8.5 3.2 3.1 69 2.3 SSW 20 28 11 15 1022.2 1022.4 0.0
03/02:30pm 8.1 0.6 4.7 79 1.5 SSW 33 43 18 23 1022.2 1022.4 0.0
03/02:00pm 9.7 2.1 2.6 61 3.0 SSW 32 41 17 22 1021.8 1022.0 0.0
03/01:30pm 10.9 3.9 2.2 55 3.7 SW 28 35 15 19 1021.7 1021.9 0.0
03/01:00pm 9.9 2.8 1.3 55 3.6 SW 28 39 15 21 1022.0 1022.2 0.0
03/12:30pm 9.9 2.4 1.5 56 3.5 SW 30 41 16 22 1022.1 1022.3 0.0
03/12:00pm 8.9 1.7 2.9 66 2.6 SW 30 43 16 23 1022.2 1022.4 0.0
03/11:30am 9.2 1.5 2.5 63 2.9 SW 32 43 17 23 1022.0 1022.2 0.0
03/11:00am 9.2 1.7 3.4 67 2.5 SW 32 43 17 23 1021.9 1022.1 0.0
03/10:30am 8.8 0.7 3.2 68 2.4 SW 35 46 19 25 1021.6 1021.8 0.0
03/10:00am 8.5 1.4 3.6 71 2.1 SW 30 41 16 22 1020.9 1021.2 0.0
03/09:30am 8.2 0.8 3.9 74 1.9 SW 32 39 17 21 1020.5 1020.8 0.0
03/09:00am 7.9 2.2 4.7 80 1.4 WSW 24 33 13 18 1020.2 1020.5 0.4
03/08:30am 7.6 1.1 4.6 81 1.3 WSW 28 37 15 20 1019.8 1020.1 0.4
03/08:00am 7.2 1.8 4.7 84 1.1 WSW 22 30 12 16 1019.2 1019.4 0.4
03/07:30am 7.5 1.1 5.0 84 1.1 WSW 28 35 15 19 1018.6 1018.8 0.4
03/07:00am 7.6 2.4 5.6 87 0.9 W 22 30 12 16 1018.0 1018.2 0.4
03/06:30am 7.5 2.7 5.8 89 0.8 W 20 28 11 15 1017.6 1017.8 0.4
03/06:00am 7.3 3.1 5.8 90 0.7 W 17 22 9 12 1017.4 1017.6 0.4
03/05:30am 7.5 2.4 5.8 89 0.8 WSW 22 30 12 16 1016.9 1017.1 0.4
03/05:00am 8.1 1.8 5.9 86 1.0 W 28 39 15 21 1016.6 1016.8 0.4
03/04:30am 7.7 2.3 6.2 90 0.7 W 24 32 13 17 1016.1 1016.3 0.4
03/04:00am 7.4 2.3 5.9 90 0.7 W 22 28 12 15 1016.0 1016.2 0.4
03/03:30am 7.7 2.3 6.2 90 0.7 W 24 30 13 16 1016.0 1016.2 0.4
03/03:00am 7.2 1.7 5.8 91 0.6 WNW 24 32 13 17 1016.0 1016.2 0.4
03/02:30am 7.7 1.8 6.0 89 0.8 WNW 26 37 14 20 1016.3 1016.5 0.4
03/02:00am 7.5 2.4 5.8 89 0.8 WNW 22 28 12 15 1016.3 1016.5 0.4
03/01:30am 7.9 2.8 5.9 87 0.9 W 22 32 12 17 1016.0 1016.2 0.4
03/01:00am 8.0 1.8 6.1 88 0.9 W 28 37 15 20 1016.1 1016.3 0.4
03/12:30am 8.3 2.8 6.1 86 1.0 W 24 37 13 20 1016.3 1016.5 0.4
03/12:00am 8.0 2.5 6.0 87 0.9 WNW 24 32 13 17 1016.2 1016.4 0.4
 
Date/Time
EST
Temp
°C
App
Temp
°C
Dew
Point
Rel
Hum
%
Delta-T
°C
Wind Press
QNH
hPa
Press
MSL
hPa
Rain
since 9 am
mm
Dir
 
Spd
km/h
Gust
km/h
Spd
kts
Gust
kts
02/11:30pm 7.6 2.1 5.9 89 0.8 WNW 24 32 13 17 1016.2 1016.4 0.4
02/11:00pm 8.1 2.4 6.6 90 0.7 WNW 26 39 14 21 1016.3 1016.5 0.4
02/10:30pm 7.9 3.3 6.7 92 0.6 WNW 20 24 11 13 1016.3 1016.5 0.4
02/10:00pm 7.7 2.7 6.5 92 0.6 WNW 22 32 12 17 1016.2 1016.4 0.4
02/09:30pm 8.2 3.3 7.0 92 0.6 WNW 22 30 12 16 1016.2 1016.4 0.4
02/09:00pm 8.3 2.2 6.6 89 0.8 WNW 28 39 15 21 1016.1 1016.3 0.4
02/08:51pm 8.5 1.7 7.0 90 0.7 WNW 32 41 17 22 1015.9 1016.1 0.4
02/08:40pm 8.5 2.1 7.0 90 0.7 WNW 30 43 16 23 1015.9 1016.1 0.4
02/08:30pm 8.7 3.8 6.8 88 0.9 WNW 22 30 12 16 1015.9 1016.1 0.4
02/08:00pm 8.6 3.5 6.1 84 1.2 W 22 30 12 16 1015.7 1015.9 0.4
02/07:30pm 9.5 4.1 6.2 80 1.5 W 24 32 13 17 1015.7 1015.9 0.4
02/07:00pm 9.4 1.8 5.8 78 1.7 W 35 52 19 28 1015.5 1015.7 0.4
02/06:52pm 9.8 2.9 6.5 80 1.5 W 32 52 17 28 1015.4 1015.6 0.4
02/06:30pm 9.5 4.0 7.6 88 0.9 WNW 26 39 14 21 1014.9 1015.1 0.4
02/06:00pm 9.2 3.5 6.8 85 1.1 WNW 26 37 14 20 1014.4 1014.6 0.4
02/05:30pm 9.7 3.0 7.5 86 1.1 WNW 32 41 17 22 1014.0 1014.2 0.4
02/05:00pm 10.6 3.5 8.0 84 1.3 W 35 54 19 29 1014.0 1014.2 0.0
02/04:58pm 10.9 3.7 7.8 81 1.5 W 35 54 19 29 1013.9 1014.1 0.0
02/04:30pm 12.9 4.5 5.8 62 3.4 WNW 39 56 21 30 1013.2 1013.5 0.0
02/04:25pm 13.0 5.0 5.9 62 3.4 WNW 37 56 20 30 1013.1 1013.3 0.0
02/04:00pm 13.2 5.2 5.6 60 3.6 WNW 37 52 20 28 1013.1 1013.3 0.0
02/03:36pm 13.7 5.2 5.1 56 4.0 W 39 57 21 31 1013.2 1013.5 0.0
02/03:30pm 13.8 4.5 5.2 56 4.0 W 43 57 23 31 1013.3 1013.6 0.0
02/03:00pm 13.5 4.0 4.9 56 4.0 W 44 59 24 32 1012.9 1013.1 0.0
02/02:30pm 13.0 3.7 4.9 58 3.8 W 43 65 23 35 1013.1 1013.3 0.0
02/02:06pm 13.2 3.9 6.1 62 3.4 WNW 44 63 24 34 1012.9 1013.1 0.0
02/02:00pm 13.0 4.0 6.4 64 3.2 WNW 43 57 23 31 1013.1 1013.3 0.0
02/01:41pm 11.8 3.6 6.7 71 2.4 W 39 57 21 31 1013.6 1013.8 0.0
02/01:30pm 12.4 3.7 5.8 64 3.1 W 41 54 22 29 1013.6 1013.8 0.0
02/01:06pm 12.4 3.8 4.9 60 3.5 WNW 39 57 21 31 1013.8 1014.0 0.0
02/01:00pm 12.5 4.8 5.4 62 3.3 WNW 35 46 19 25 1013.9 1014.1 0.0
02/12:30pm 13.0 4.7 6.1 63 3.3 W 39 54 21 29 1014.5 1014.7 0.0
02/12:00pm 12.1 3.0 5.7 65 3.0 WNW 43 56 23 30 1014.9 1015.1 0.0
02/11:36am 12.1 4.1 5.7 65 3.0 W 37 56 20 30 1014.9 1015.1 0.0
02/11:30am 11.4 3.0 5.5 67 2.7 W 39 52 21 28 1015.0 1015.2 0.0
02/11:00am 10.9 3.7 5.7 70 2.4 WNW 33 44 18 24 1015.1 1015.3 0.0
02/10:30am 10.1 2.9 5.9 75 1.9 WNW 33 43 18 23 1015.5 1015.7 0.0
02/10:00am 9.0 1.8 5.7 80 1.5 WNW 33 39 18 21 1015.7 1015.9 0.0
02/09:30am 7.5 1.9 5.6 88 0.9 NW 24 30 13 16 1015.7 1015.9 0.0
02/09:00am 6.3 1.4 5.3 93 0.4 NW 20 24 11 13 1015.8 1016.0 0.0
02/08:30am 5.5 0.7 4.8 95 0.3 NW 19 24 10 13 1015.7 1015.9 0.0
02/08:00am 4.1 -0.9 3.4 95 0.3 NW 19 20 10 11 1015.5 1015.7 0.0
02/07:30am 3.6 -1.6 2.7 94 0.4 NW 19 19 10 10 1015.4 1015.6 0.0
02/07:00am 4.3 -0.8 3.3 93 0.4 NW 19 20 10 11 1015.2 1015.4 0.0
02/06:30am 4.6 -0.1 3.4 92 0.5 WNW 17 19 9 10 1015.1 1015.3 0.0
02/06:00am 4.9 0.3 3.7 92 0.5 WNW 17 20 9 11 1015.3 1015.5 0.0
02/05:30am 5.0 1.1 3.5 90 0.6 WNW 13 17 7 9 1015.3 1015.5 0.0
02/05:00am 5.8 2.0 4.1 89 0.7 WNW 13 15 7 8 1015.3 1015.5 0.0
02/04:30am 5.8 1.7 4.4 91 0.6 NW 15 17 8 9 1015.4 1015.6 0.0
02/04:00am 5.5 1.8 4.3 92 0.5 NW 13 15 7 8 1015.5 1015.7 0.0
02/03:30am 5.5 1.8 4.3 92 0.5 NW 13 15 7 8 1015.8 1016.0 0.0
02/03:00am 5.8 2.1 4.4 91 0.6 NW 13 15 7 8 1016.0 1016.2 0.0
02/02:30am 6.1 2.0 4.4 89 0.7 NW 15 17 8 9 1015.9 1016.1 0.0
02/02:00am 6.2 2.5 4.4 88 0.8 NW 13 17 7 9 1016.0 1016.2 0.0
02/01:30am 6.0 2.3 4.2 88 0.8 NW 13 15 7 8 1016.3 1016.5 0.0
02/01:00am 5.9 2.9 4.1 88 0.8 NW 9 9 5 5 1016.6 1016.8 0.0
02/12:30am 6.0 3.0 4.2 88 0.8 NNW 9 11 5 6 1016.7 1016.9 0.0
02/12:00am 6.2 3.2 4.2 87 0.9 NNW 9 11 5 6 1016.6 1016.8 0.0
 
Date/Time
EST
Temp
°C
App
Temp
°C
Dew
Point
Rel
Hum
%
Delta-T
°C
Wind Press
QNH
hPa
Press
MSL
hPa
Rain
since 9 am
mm
Dir
 
Spd
km/h
Gust
km/h
Spd
kts
Gust
kts
01/11:30pm 6.0 3.0 4.2 88 0.8 NNW 9 13 5 7 1016.7 1016.9 0.0
01/11:00pm 6.5 3.9 4.0 84 1.1 WNW 7 7 4 4 1016.9 1017.1 0.0
01/10:30pm 6.4 3.0 4.2 86 0.9 WNW 11 13 6 7 1017.5 1017.7 0.0
01/10:00pm 6.1 3.2 4.6 90 0.7 NW 9 13 5 7 1016.9 1017.1 0.0
01/09:30pm 6.4 4.1 4.7 89 0.7 NW 6 7 3 4 1016.5 1016.7 0.0
01/09:00pm 6.3 3.0 4.6 89 0.7 NNW 11 13 6 7 1017.1 1017.3 0.0
01/08:30pm 6.7 4.1 4.4 85 1.0 WNW 7 9 4 5 1016.9 1017.1 0.0
01/08:00pm 6.4 3.1 4.6 88 0.8 NW 11 13 6 7 1017.4 1017.6 0.0
01/07:30pm 6.6 4.6 4.6 87 0.9 NW 4 11 2 6 1017.1 1017.3 0.0
01/07:00pm 7.0 4.6 4.1 82 1.3 W 6 7 3 4 1016.5 1016.7 0.0
01/06:30pm 7.4 4.8 4.0 79 1.5 SSW 7 9 4 5 1015.9 1016.1 0.0
01/06:00pm 7.7 4.7 4.1 78 1.6 SSW 9 11 5 6 1015.8 1016.0 0.0
01/05:30pm 8.4 4.2 3.8 73 2.0 SSW 15 17 8 9 1015.3 1015.5 0.0
01/05:00pm 8.9 5.9 4.1 72 2.1 SW 9 11 5 6 1015.6 1015.8 0.0
01/04:30pm 9.4 5.8 2.9 64 2.8 W 11 13 6 7 1016.2 1016.4 0.0
01/04:00pm 9.6 6.0 2.9 63 2.9 SW 11 17 6 9 1016.0 1016.2 0.0
01/03:30pm 9.8 5.3 2.4 60 3.2 WSW 15 19 8 10 1015.2 1015.4 0.0
01/03:00pm 9.8 5.0 2.4 60 3.2 SW 17 20 9 11 1015.6 1015.8 0.0
01/02:30pm 9.7 4.5 2.6 61 3.0 SW 19 24 10 13 1015.6 1015.8 0.0
01/02:00pm 9.6 4.6 3.4 65 2.7 SW 19 22 10 12 1015.5 1015.7 0.0
01/01:30pm 9.7 5.2 4.1 68 2.5 SW 17 24 9 13 1015.4 1015.6 0.0
01/01:00pm 9.4 4.3 4.2 70 2.3 SW 20 26 11 14 1015.2 1015.4 0.0
01/12:30pm 9.5 4.4 4.3 70 2.3 SW 20 26 11 14 1015.6 1015.8 0.0
01/12:00pm 9.4 4.5 5.2 75 1.9 SSW 20 24 11 13 1015.5 1015.7 0.0
01/11:30am 9.6 5.3 6.9 83 1.3 SW 19 22 10 12 1015.7 1015.9 0.0
01/11:00am 9.0 4.4 6.3 83 1.3 SW 20 26 11 14 1015.8 1016.0 0.0
01/10:30am 9.2 4.7 6.8 85 1.1 SW 20 24 11 13 1015.5 1015.7 0.0
01/10:00am 9.3 5.4 6.9 85 1.1 SW 17 20 9 11 1015.6 1015.8 0.0
01/09:30am 9.0 5.6 7.5 90 0.7 SW 15 20 8 11 1015.0 1015.2 0.0

Other Formats:

Comma delimited format used in spreadsheet applications
http://www.bom.gov.au/fwo/IDV60801/IDV60801.95839.axf

JavaScript Object Notation format (JSON) in row-major order
http://www.bom.gov.au/fwo/IDV60801/IDV60801.95839.json